sensor_id;sensor_type;location;lat;lon;timestamp;pressure;altitude;pressure_sealevel;temperature;humidity
9717;BME280;4897;43.570;27.832;2023-02-12T00:00:18;99984.72;;;-0.17;100.00
9717;BME280;4897;43.570;27.832;2023-02-12T00:02:45;99983.91;;;-0.19;100.00
9717;BME280;4897;43.570;27.832;2023-02-12T00:05:13;99979.50;;;-0.18;100.00
9717;BME280;4897;43.570;27.832;2023-02-12T00:07:41;99965.44;;;-0.16;100.00
9717;BME280;4897;43.570;27.832;2023-02-12T00:10:08;99978.50;;;-0.14;100.00
9717;BME280;4897;43.570;27.832;2023-02-12T00:12:35;99995.66;;;-0.01;100.00
9717;BME280;4897;43.570;27.832;2023-02-12T00:15:02;99982.56;;;-0.03;100.00
9717;BME280;4897;43.570;27.832;2023-02-12T00:17:29;99980.25;;;-0.13;100.00
9717;BME280;4897;43.570;27.832;2023-02-12T00:19:56;99987.03;;;-0.06;100.00
9717;BME280;4897;43.570;27.832;2023-02-12T00:22:24;99967.94;;;-0.11;100.00
9717;BME280;4897;43.570;27.832;2023-02-12T00:24:52;99979.63;;;0.08;100.00
9717;BME280;4897;43.570;27.832;2023-02-12T00:27:19;99969.06;;;0.10;100.00
9717;BME280;4897;43.570;27.832;2023-02-12T00:29:46;99970.13;;;0.03;100.00
9717;BME280;4897;43.570;27.832;2023-02-12T00:32:12;99967.56;;;0.01;100.00
9717;BME280;4897;43.570;27.832;2023-02-12T00:34:43;99956.88;;;0.07;100.00
9717;BME280;4897;43.570;27.832;2023-02-12T00:37:11;99978.50;;;0.17;100.00
9717;BME280;4897;43.570;27.832;2023-02-12T00:39:39;99969.19;;;0.05;100.00
9717;BME280;4897;43.570;27.832;2023-02-12T00:42:06;99951.88;;;-0.02;100.00
9717;BME280;4897;43.570;27.832;2023-02-12T00:44:33;99956.78;;;0.10;100.00
9717;BME280;4897;43.570;27.832;2023-02-12T00:47:00;99944.97;;;-0.06;100.00
9717;BME280;4897;43.570;27.832;2023-02-12T00:49:27;99963.13;;;0.03;100.00
9717;BME280;4897;43.570;27.832;2023-02-12T00:51:58;99945.03;;;-0.08;100.00
9717;BME280;4897;43.570;27.832;2023-02-12T00:54:25;99926.25;;;-0.25;100.00
9717;BME280;4897;43.570;27.832;2023-02-12T00:56:54;99929.50;;;-0.15;100.00
9717;BME280;4897;43.570;27.832;2023-02-12T00:59:21;99932.56;;;-0.01;100.00
9717;BME280;4897;43.570;27.832;2023-02-12T01:01:48;99929.41;;;-0.12;100.00
9717;BME280;4897;43.570;27.832;2023-02-12T01:04:15;99946.66;;;-0.04;100.00
9717;BME280;4897;43.570;27.832;2023-02-12T01:06:42;99936.03;;;0.01;100.00
9717;BME280;4897;43.570;27.832;2023-02-12T01:09:09;99920.44;;;-0.05;100.00
9717;BME280;4897;43.570;27.832;2023-02-12T01:11:36;99940.59;;;-0.06;100.00
9717;BME280;4897;43.570;27.832;2023-02-12T01:14:05;99921.44;;;-0.09;100.00
9717;BME280;4897;43.570;27.832;2023-02-12T01:16:32;99937.09;;;-0.06;100.00
9717;BME280;4897;43.570;27.832;2023-02-12T01:19:01;99946.91;;;-0.11;100.00
9717;BME280;4897;43.570;27.832;2023-02-12T01:21:30;99938.09;;;-0.10;100.00
9717;BME280;4897;43.570;27.832;2023-02-12T01:23:58;99917.19;;;-0.15;100.00
9717;BME280;4897;43.570;27.832;2023-02-12T01:26:26;99926.75;;;-0.12;100.00
9717;BME280;4897;43.570;27.832;2023-02-12T01:28:55;99934.75;;;-0.15;100.00
9717;BME280;4897;43.570;27.832;2023-02-12T01:31:25;99934.94;;;-0.21;100.00
9717;BME280;4897;43.570;27.832;2023-02-12T01:33:53;99932.16;;;-0.17;100.00
9717;BME280;4897;43.570;27.832;2023-02-12T01:36:20;99929.50;;;-0.15;100.00
9717;BME280;4897;43.570;27.832;2023-02-12T01:38:47;99888.97;;;-0.37;100.00
9717;BME280;4897;43.570;27.832;2023-02-12T01:41:18;99942.00;;;-0.23;100.00
9717;BME280;4897;43.570;27.832;2023-02-12T01:44:02;99895.31;;;-0.44;100.00
9717;BME280;4897;43.570;27.832;2023-02-12T01:46:32;99917.19;;;-0.44;100.00
9717;BME280;4897;43.570;27.832;2023-02-12T01:49:00;99918.25;;;-0.20;100.00
9717;BME280;4897;43.570;27.832;2023-02-12T01:51:28;99931.13;;;-0.11;100.00
9717;BME280;4897;43.570;27.832;2023-02-12T01:53:58;99929.31;;;-0.09;100.00
9717;BME280;4897;43.570;27.832;2023-02-12T01:56:26;99869.91;;;-0.44;100.00
9717;BME280;4897;43.570;27.832;2023-02-12T01:58:54;99921.63;;;-0.17;100.00
9717;BME280;4897;43.570;27.832;2023-02-12T02:01:24;99891.59;;;-0.37;100.00
9717;BME280;4897;43.570;27.832;2023-02-12T02:03:57;99916.34;;;-0.15;100.00
9717;BME280;4897;43.570;27.832;2023-02-12T02:06:28;99912.53;;;-0.05;100.00
9717;BME280;4897;43.570;27.832;2023-02-12T02:08:57;99882.50;;;-0.26;100.00
9717;BME280;4897;43.570;27.832;2023-02-12T02:11:24;99903.09;;;-0.12;100.00
9717;BME280;4897;43.570;27.832;2023-02-12T02:14:08;99860.53;;;-0.52;100.00
9717;BME280;4897;43.570;27.832;2023-02-12T02:16:58;99898.16;;;-0.23;100.00
9717;BME280;4897;43.570;27.832;2023-02-12T02:19:41;99901.66;;;-0.22;100.00
9717;BME280;4897;43.570;27.832;2023-02-12T02:22:23;99883.31;;;-0.24;100.00
9717;BME280;4897;43.570;27.832;2023-02-12T02:25:20;99911.38;;;-0.24;100.00
9717;BME280;4897;43.570;27.832;2023-02-12T02:28:01;99918.56;;;-0.31;100.00
9717;BME280;4897;43.570;27.832;2023-02-12T02:30:39;99916.56;;;-0.23;100.00
9717;BME280;4897;43.570;27.832;2023-02-12T02:33:19;99927.06;;;-0.23;100.00
9717;BME280;4897;43.570;27.832;2023-02-12T02:35:52;99914.53;;;-0.13;100.00
9717;BME280;4897;43.570;27.832;2023-02-12T02:38:27;99926.50;;;-0.03;100.00
9717;BME280;4897;43.570;27.832;2023-02-12T02:41:02;99898.16;;;-0.21;100.00
9717;BME280;4897;43.570;27.832;2023-02-12T02:43:35;99905.78;;;-0.14;100.00
9717;BME280;4897;43.570;27.832;2023-02-12T02:46:08;99920.25;;;0.01;100.00
9717;BME280;4897;43.570;27.832;2023-02-12T02:48:41;99921.19;;;-0.02;100.00
9717;BME280;4897;43.570;27.832;2023-02-12T02:51:13;99957.03;;;0.01;100.00
9717;BME280;4897;43.570;27.832;2023-02-12T02:53:45;99923.28;;;0.17;100.00
9717;BME280;4897;43.570;27.832;2023-02-12T02:56:16;99924.94;;;0.19;100.00
9717;BME280;4897;43.570;27.832;2023-02-12T02:58:48;99922.06;;;-0.01;100.00
9717;BME280;4897;43.570;27.832;2023-02-12T03:01:21;99916.59;;;0.05;100.00
9717;BME280;4897;43.570;27.832;2023-02-12T03:03:52;99926.25;;;0.05;100.00
9717;BME280;4897;43.570;27.832;2023-02-12T03:06:25;99797.66;;;-0.57;100.00
9717;BME280;4897;43.570;27.832;2023-02-12T03:08:56;99932.13;;;0.14;100.00
9717;BME280;4897;43.570;27.832;2023-02-12T03:11:25;99891.31;;;0.01;100.00
9717;BME280;4897;43.570;27.832;2023-02-12T03:13:58;99911.84;;;0.18;100.00
9717;BME280;4897;43.570;27.832;2023-02-12T03:16:31;99928.09;;;0.30;100.00
9717;BME280;4897;43.570;27.832;2023-02-12T03:19:04;99916.63;;;0.33;100.00
9717;BME280;4897;43.570;27.832;2023-02-12T03:21:38;99927.28;;;0.28;100.00
9717;BME280;4897;43.570;27.832;2023-02-12T03:24:12;99927.16;;;0.33;100.00
9717;BME280;4897;43.570;27.832;2023-02-12T03:26:45;99935.09;;;0.31;100.00
9717;BME280;4897;43.570;27.832;2023-02-12T03:29:12;99939.38;;;0.34;100.00
9717;BME280;4897;43.570;27.832;2023-02-12T03:31:55;99941.50;;;0.23;100.00
9717;BME280;4897;43.570;27.832;2023-02-12T03:34:30;99900.94;;;0.02;100.00
9717;BME280;4897;43.570;27.832;2023-02-12T03:37:03;99904.09;;;0.13;100.00
9717;BME280;4897;43.570;27.832;2023-02-12T03:39:39;99914.22;;;0.25;100.00
9717;BME280;4897;43.570;27.832;2023-02-12T03:42:13;99836.97;;;-0.26;100.00
9717;BME280;4897;43.570;27.832;2023-02-12T03:44:51;99916.03;;;0.23;100.00
9717;BME280;4897;43.570;27.832;2023-02-12T03:47:24;99919.00;;;0.13;100.00
9717;BME280;4897;43.570;27.832;2023-02-12T03:49:59;99915.56;;;0.11;100.00
9717;BME280;4897;43.570;27.832;2023-02-12T03:52:28;99938.19;;;0.16;100.00
9717;BME280;4897;43.570;27.832;2023-02-12T03:54:56;99939.88;;;0.19;100.00
9717;BME280;4897;43.570;27.832;2023-02-12T03:57:25;99932.13;;;0.14;100.00
9717;BME280;4897;43.570;27.832;2023-02-12T03:59:55;99854.19;;;-0.45;100.00
9717;BME280;4897;43.570;27.832;2023-02-12T04:02:24;99932.38;;;0.05;100.00
9717;BME280;4897;43.570;27.832;2023-02-12T04:04:51;99956.78;;;0.10;100.00
9717;BME280;4897;43.570;27.832;2023-02-12T04:07:18;99951.59;;;0.07;100.00
9717;BME280;4897;43.570;27.832;2023-02-12T04:09:44;99836.34;;;-0.63;100.00
9717;BME280;4897;43.570;27.832;2023-02-12T04:12:33;99962.56;;;-0.08;100.00
9717;BME280;4897;43.570;27.832;2023-02-12T04:15:15;99964.47;;;-0.13;100.00
9717;BME280;4897;43.570;27.832;2023-02-12T04:17:49;99956.03;;;-0.24;100.00
9717;BME280;4897;43.570;27.832;2023-02-12T04:20:25;99965.50;;;-0.19;100.00
9717;BME280;4897;43.570;27.832;2023-02-12T04:23:01;99955.09;;;-0.52;100.00
9717;BME280;4897;43.570;27.832;2023-02-12T04:25:42;99973.91;;;-0.37;100.00
9717;BME280;4897;43.570;27.832;2023-02-12T04:28:22;99991.19;;;-0.28;100.00
9717;BME280;4897;43.570;27.832;2023-02-12T04:30:58;99969.00;;;-0.49;100.00
9717;BME280;4897;43.570;27.832;2023-02-12T04:33:33;99988.56;;;-0.60;100.00
9717;BME280;4897;43.570;27.832;2023-02-12T04:36:05;100000.75;;;-0.58;100.00
9717;BME280;4897;43.570;27.832;2023-02-12T04:38:37;99989.59;;;-0.66;100.00
9717;BME280;4897;43.570;27.832;2023-02-12T04:41:06;99993.69;;;-0.88;100.00
9717;BME280;4897;43.570;27.832;2023-02-12T04:43:35;99981.66;;;-0.97;100.00
9717;BME280;4897;43.570;27.832;2023-02-12T04:46:04;99956.00;;;-1.19;100.00
9717;BME280;4897;43.570;27.832;2023-02-12T04:48:32;99979.97;;;-0.99;100.00
9717;BME280;4897;43.570;27.832;2023-02-12T04:51:00;99988.13;;;-1.10;100.00
9717;BME280;4897;43.570;27.832;2023-02-12T04:53:27;99996.75;;;-1.05;100.00
9717;BME280;4897;43.570;27.832;2023-02-12T04:55:54;99994.91;;;-1.01;100.00
9717;BME280;4897;43.570;27.832;2023-02-12T04:58:21;99996.03;;;-1.11;100.00
9717;BME280;4897;43.570;27.832;2023-02-12T05:00:48;99999.31;;;-1.03;100.00
9717;BME280;4897;43.570;27.832;2023-02-12T05:03:15;100005.72;;;-1.13;100.00
9717;BME280;4897;43.570;27.832;2023-02-12T05:05:43;100000.03;;;-1.32;100.00
9717;BME280;4897;43.570;27.832;2023-02-12T05:08:10;100017.34;;;-1.25;100.00
9717;BME280;4897;43.570;27.832;2023-02-12T05:10:36;100005.44;;;-1.38;100.00
9717;BME280;4897;43.570;27.832;2023-02-12T05:13:03;100018.25;;;-1.26;100.00
9717;BME280;4897;43.570;27.832;2023-02-12T05:15:30;100027.16;;;-1.33;100.00
9717;BME280;4897;43.570;27.832;2023-02-12T05:17:57;100024.00;;;-1.47;100.00
9717;BME280;4897;43.570;27.832;2023-02-12T05:20:24;100023.91;;;-1.42;100.00
9717;BME280;4897;43.570;27.832;2023-02-12T05:22:55;100039.50;;;-1.36;100.00
9717;BME280;4897;43.570;27.832;2023-02-12T05:25:22;99983.31;;;-1.65;100.00
9717;BME280;4897;43.570;27.832;2023-02-12T05:27:49;100041.91;;;-1.27;100.00
9717;BME280;4897;43.570;27.832;2023-02-12T05:30:16;100044.19;;;-1.14;100.00
9717;BME280;4897;43.570;27.832;2023-02-12T05:32:43;100039.63;;;-1.06;100.00
9717;BME280;4897;43.570;27.832;2023-02-12T05:35:10;100032.81;;;-1.14;100.00
9717;BME280;4897;43.570;27.832;2023-02-12T05:37:37;100035.09;;;-0.99;100.00
9717;BME280;4897;43.570;27.832;2023-02-12T05:40:06;100041.66;;;-0.82;100.00
9717;BME280;4897;43.570;27.832;2023-02-12T05:42:33;100054.09;;;-0.90;100.00
9717;BME280;4897;43.570;27.832;2023-02-12T05:45:00;100054.91;;;-0.52;100.00
9717;BME280;4897;43.570;27.832;2023-02-12T05:47:27;100050.28;;;-0.43;100.00
9717;BME280;4897;43.570;27.832;2023-02-12T05:49:54;100058.69;;;-0.30;100.00
9717;BME280;4897;43.570;27.832;2023-02-12T05:52:21;100072.41;;;-0.19;100.00
9717;BME280;4897;43.570;27.832;2023-02-12T05:54:48;100061.56;;;-0.07;100.00
9717;BME280;4897;43.570;27.832;2023-02-12T05:57:17;100067.69;;;-0.07;100.00
9717;BME280;4897;43.570;27.832;2023-02-12T05:59:44;100027.03;;;-0.26;100.00
9717;BME280;4897;43.570;27.832;2023-02-12T06:02:10;100074.19;;;0.11;100.00
9717;BME280;4897;43.570;27.832;2023-02-12T06:04:37;100076.00;;;0.09;100.00
9717;BME280;4897;43.570;27.832;2023-02-12T06:07:04;100079.09;;;0.23;100.00
9717;BME280;4897;43.570;27.832;2023-02-12T06:09:32;100078.84;;;0.32;100.00
9717;BME280;4897;43.570;27.832;2023-02-12T06:11:59;100074.09;;;0.45;100.00
9717;BME280;4897;43.570;27.832;2023-02-12T06:14:28;100063.56;;;0.45;100.00
9717;BME280;4897;43.570;27.832;2023-02-12T06:16:55;100067.81;;;0.49;100.00
9717;BME280;4897;43.570;27.832;2023-02-12T06:19:21;100081.72;;;0.52;100.00
9717;BME280;4897;43.570;27.832;2023-02-12T06:21:48;99849.25;;;-1.19;100.00
9717;BME280;4897;43.570;27.832;2023-02-12T06:24:16;100080.09;;;0.50;100.00
9717;BME280;4897;43.570;27.832;2023-02-12T06:26:43;100089.19;;;0.38;100.00
9717;BME280;4897;43.570;27.832;2023-02-12T06:29:10;100080.91;;;0.52;100.00
9717;BME280;4897;43.570;27.832;2023-02-12T06:31:39;99974.13;;;-0.14;100.00
9717;BME280;4897;43.570;27.832;2023-02-12T06:34:08;100089.41;;;0.60;100.00
9717;BME280;4897;43.570;27.832;2023-02-12T06:36:37;100088.91;;;0.76;100.00
9717;BME280;4897;43.570;27.832;2023-02-12T06:39:04;100084.22;;;0.58;100.00
9717;BME280;4897;43.570;27.832;2023-02-12T06:41:31;100092.63;;;0.40;100.00
9717;BME280;4897;43.570;27.832;2023-02-12T06:43:58;100099.94;;;0.60;100.00
9717;BME280;4897;43.570;27.832;2023-02-12T06:46:25;100048.53;;;0.48;100.00
9717;BME280;4897;43.570;27.832;2023-02-12T06:48:55;100094.00;;;0.82;100.00
9717;BME280;4897;43.570;27.832;2023-02-12T06:51:22;100097.50;;;0.83;100.00
9717;BME280;4897;43.570;27.832;2023-02-12T06:53:50;100092.22;;;0.83;100.00
9717;BME280;4897;43.570;27.832;2023-02-12T06:56:19;100108.41;;;0.99;100.00
9717;BME280;4897;43.570;27.832;2023-02-12T06:58:51;100082.22;;;0.66;100.00
9717;BME280;4897;43.570;27.832;2023-02-12T07:01:21;100118.72;;;1.05;100.00
9717;BME280;4897;43.570;27.832;2023-02-12T07:03:50;100113.28;;;1.11;100.00
9717;BME280;4897;43.570;27.832;2023-02-12T07:06:19;100115.78;;;1.15;100.00
9717;BME280;4897;43.570;27.832;2023-02-12T07:08:47;100113.09;;;1.17;100.00
9717;BME280;4897;43.570;27.832;2023-02-12T07:11:15;100101.03;;;1.10;100.00
9717;BME280;4897;43.570;27.832;2023-02-12T07:13:43;100046.25;;;0.65;100.00
9717;BME280;4897;43.570;27.832;2023-02-12T07:16:12;100117.59;;;1.13;100.00
9717;BME280;4897;43.570;27.832;2023-02-12T07:18:40;100116.06;;;1.06;100.00
9717;BME280;4897;43.570;27.832;2023-02-12T07:21:08;100112.78;;;1.26;100.00
9717;BME280;4897;43.570;27.832;2023-02-12T07:23:37;100117.28;;;1.50;100.00
9717;BME280;4897;43.570;27.832;2023-02-12T07:26:06;100114.75;;;1.47;100.00
9717;BME280;4897;43.570;27.832;2023-02-12T07:28:34;100127.63;;;1.56;100.00
9717;BME280;4897;43.570;27.832;2023-02-12T07:31:05;100133.19;;;1.47;100.00
9717;BME280;4897;43.570;27.832;2023-02-12T07:33:33;100139.56;;;1.40;100.00
9717;BME280;4897;43.570;27.832;2023-02-12T07:36:00;100126.28;;;1.43;100.00
9717;BME280;4897;43.570;27.832;2023-02-12T07:38:27;100129.44;;;1.54;100.00
9717;BME280;4897;43.570;27.832;2023-02-12T07:41:05;100128.66;;;1.50;100.00
9717;BME280;4897;43.570;27.832;2023-02-12T07:43:32;100137.59;;;1.73;100.00
9717;BME280;4897;43.570;27.832;2023-02-12T07:46:05;100117.75;;;1.87;100.00
9717;BME280;4897;43.570;27.832;2023-02-12T07:48:32;100130.75;;;1.93;100.00
9717;BME280;4897;43.570;27.832;2023-02-12T07:51:02;100129.72;;;1.97;100.00
9717;BME280;4897;43.570;27.832;2023-02-12T07:53:29;100143.63;;;2.02;100.00
9717;BME280;4897;43.570;27.832;2023-02-12T07:56:05;100160.50;;;2.21;100.00
9717;BME280;4897;43.570;27.832;2023-02-12T07:58:32;100142.31;;;2.38;100.00
9717;BME280;4897;43.570;27.832;2023-02-12T08:00:59;100143.59;;;2.52;100.00
9717;BME280;4897;43.570;27.832;2023-02-12T08:03:27;100143.81;;;2.92;100.00
9717;BME280;4897;43.570;27.832;2023-02-12T08:05:54;100116.41;;;2.71;100.00
9717;BME280;4897;43.570;27.832;2023-02-12T08:08:20;100149.78;;;2.97;100.00
9717;BME280;4897;43.570;27.832;2023-02-12T08:10:47;100150.16;;;3.09;100.00
9717;BME280;4897;43.570;27.832;2023-02-12T08:13:15;100155.75;;;3.02;100.00
9717;BME280;4897;43.570;27.832;2023-02-12T08:15:42;100163.94;;;2.96;100.00
9717;BME280;4897;43.570;27.832;2023-02-12T08:18:09;100152.19;;;3.03;100.00
9717;BME280;4897;43.570;27.832;2023-02-12T08:20:36;100167.00;;;3.07;100.00
9717;BME280;4897;43.570;27.832;2023-02-12T08:23:03;100175.63;;;3.12;100.00
9717;BME280;4897;43.570;27.832;2023-02-12T08:25:30;100144.72;;;3.14;100.00
9717;BME280;4897;43.570;27.832;2023-02-12T08:27:57;100162.53;;;3.31;100.00
9717;BME280;4897;43.570;27.832;2023-02-12T08:30:25;100164.81;;;3.61;100.00
9717;BME280;4897;43.570;27.832;2023-02-12T08:32:52;100168.75;;;3.73;100.00
9717;BME280;4897;43.570;27.832;2023-02-12T08:35:19;100170.97;;;3.83;100.00
9717;BME280;4897;43.570;27.832;2023-02-12T08:37:46;100191.59;;;3.75;100.00
9717;BME280;4897;43.570;27.832;2023-02-12T08:40:13;100185.28;;;3.78;100.00
9717;BME280;4897;43.570;27.832;2023-02-12T08:42:39;100180.44;;;3.67;100.00
9717;BME280;4897;43.570;27.832;2023-02-12T08:45:07;100184.44;;;3.34;100.00
9717;BME280;4897;43.570;27.832;2023-02-12T08:47:36;100195.63;;;3.19;100.00
9717;BME280;4897;43.570;27.832;2023-02-12T08:50:03;100194.69;;;3.20;100.00
9717;BME280;4897;43.570;27.832;2023-02-12T08:52:30;100178.25;;;3.12;100.00
9717;BME280;4897;43.570;27.832;2023-02-12T08:54:56;100179.53;;;3.02;100.00
9717;BME280;4897;43.570;27.832;2023-02-12T08:57:23;100195.16;;;3.08;100.00
9717;BME280;4897;43.570;27.832;2023-02-12T08:59:50;100232.69;;;2.93;100.00
9717;BME280;4897;43.570;27.832;2023-02-12T09:02:17;100197.22;;;2.77;100.00
9717;BME280;4897;43.570;27.832;2023-02-12T09:04:45;100203.66;;;2.93;100.00
9717;BME280;4897;43.570;27.832;2023-02-12T09:07:12;100203.78;;;2.90;100.00
9717;BME280;4897;43.570;27.832;2023-02-12T09:09:39;100208.53;;;2.80;100.00
9717;BME280;4897;43.570;27.832;2023-02-12T09:12:06;100207.66;;;2.80;100.00
9717;BME280;4897;43.570;27.832;2023-02-12T09:14:33;100206.19;;;2.73;100.00
9717;BME280;4897;43.570;27.832;2023-02-12T09:16:59;100225.09;;;2.84;100.00
9717;BME280;4897;43.570;27.832;2023-02-12T09:19:26;100197.47;;;2.69;100.00
9717;BME280;4897;43.570;27.832;2023-02-12T09:21:55;100205.41;;;2.69;100.00
9717;BME280;4897;43.570;27.832;2023-02-12T09:24:23;100211.47;;;2.48;100.00
9717;BME280;4897;43.570;27.832;2023-02-12T09:26:50;100228.81;;;2.55;100.00
9717;BME280;4897;43.570;27.832;2023-02-12T09:29:17;100220.88;;;2.55;100.00
9717;BME280;4897;43.570;27.832;2023-02-12T09:31:44;100219.13;;;2.56;100.00
9717;BME280;4897;43.570;27.832;2023-02-12T09:34:11;100219.72;;;2.87;100.00
9717;BME280;4897;43.570;27.832;2023-02-12T09:36:37;100222.47;;;3.07;100.00
9717;BME280;4897;43.570;27.832;2023-02-12T09:39:06;100215.81;;;3.20;100.00
9717;BME280;4897;43.570;27.832;2023-02-12T09:44:32;100214.53;;;3.30;100.00
9717;BME280;4897;43.570;27.832;2023-02-12T09:47:08;100228.28;;;3.40;100.00
9717;BME280;4897;43.570;27.832;2023-02-12T09:49:48;100208.22;;;3.34;100.00
9717;BME280;4897;43.570;27.832;2023-02-12T09:52:23;100224.78;;;3.39;100.00
9717;BME280;4897;43.570;27.832;2023-02-12T09:54:53;100210.84;;;3.34;100.00
9717;BME280;4897;43.570;27.832;2023-02-12T09:57:24;100203.78;;;3.35;100.00
9717;BME280;4897;43.570;27.832;2023-02-12T09:59:57;100226.47;;;3.40;100.00
9717;BME280;4897;43.570;27.832;2023-02-12T10:02:24;100223.00;;;3.40;100.00
9717;BME280;4897;43.570;27.832;2023-02-12T10:04:52;100228.78;;;3.49;100.00
9717;BME280;4897;43.570;27.832;2023-02-12T10:07:30;100224.19;;;3.54;100.00
9717;BME280;4897;43.570;27.832;2023-02-12T10:10:12;100221.44;;;3.34;100.00
9717;BME280;4897;43.570;27.832;2023-02-12T10:12:49;100228.47;;;3.35;100.00
9717;BME280;4897;43.570;27.832;2023-02-12T10:15:31;100218.34;;;3.23;100.00
9717;BME280;4897;43.570;27.832;2023-02-12T10:18:14;100232.47;;;3.45;100.00
9717;BME280;4897;43.570;27.832;2023-02-12T10:20:56;100214.91;;;3.44;100.00
9717;BME280;4897;43.570;27.832;2023-02-12T10:24:01;100218.91;;;3.54;100.00
9717;BME280;4897;43.570;27.832;2023-02-12T10:26:32;100225.97;;;3.54;100.00
9717;BME280;4897;43.570;27.832;2023-02-12T10:29:10;100232.28;;;3.71;100.00
9717;BME280;4897;43.570;27.832;2023-02-12T10:31:42;100204.47;;;3.61;100.00
9717;BME280;4897;43.570;27.832;2023-02-12T10:34:15;100235.00;;;3.70;100.00
9717;BME280;4897;43.570;27.832;2023-02-12T10:36:44;100235.44;;;3.81;100.00
9717;BME280;4897;43.570;27.832;2023-02-12T10:39:20;100228.38;;;3.81;100.00
9717;BME280;4897;43.570;27.832;2023-02-12T10:41:54;100233.66;;;3.81;100.00
9717;BME280;4897;43.570;27.832;2023-02-12T10:44:23;100235.13;;;3.88;100.00
9717;BME280;4897;43.570;27.832;2023-02-12T10:46:50;100219.03;;;3.73;100.00
9717;BME280;4897;43.570;27.832;2023-02-12T10:49:18;100225.38;;;3.67;100.00
9717;BME280;4897;43.570;27.832;2023-02-12T10:52:07;100234.38;;;3.63;100.00
9717;BME280;4897;43.570;27.832;2023-02-12T10:54:39;100227.13;;;3.68;100.00
9717;BME280;4897;43.570;27.832;2023-02-12T10:57:18;100227.63;;;3.56;100.00
9717;BME280;4897;43.570;27.832;2023-02-12T10:59:47;100252.31;;;3.55;100.00
9717;BME280;4897;43.570;27.832;2023-02-12T11:02:25;100242.88;;;3.50;100.00
9717;BME280;4897;43.570;27.832;2023-02-12T11:04:53;100245.81;;;3.64;100.00
9717;BME280;4897;43.570;27.832;2023-02-12T11:07:21;100253.16;;;3.79;100.00
9717;BME280;4897;43.570;27.832;2023-02-12T11:09:50;100225.19;;;3.73;100.00
9717;BME280;4897;43.570;27.832;2023-02-12T11:12:29;100249.41;;;4.06;100.00
9717;BME280;4897;43.570;27.832;2023-02-12T11:14:59;100249.22;;;4.11;100.00
9717;BME280;4897;43.570;27.832;2023-02-12T11:17:29;100199.69;;;3.71;100.00
9717;BME280;4897;43.570;27.832;2023-02-12T11:20:06;100236.34;;;4.01;100.00
9717;BME280;4897;43.570;27.832;2023-02-12T11:22:35;100255.84;;;4.21;100.00
9717;BME280;4897;43.570;27.832;2023-02-12T11:25:13;100265.34;;;4.04;100.00
9717;BME280;4897;43.570;27.832;2023-02-12T11:27:43;100259.25;;;4.02;100.00
9717;BME280;4897;43.570;27.832;2023-02-12T11:30:16;100250.75;;;3.94;100.00
9717;BME280;4897;43.570;27.832;2023-02-12T11:32:45;100257.88;;;3.92;100.00
9717;BME280;4897;43.570;27.832;2023-02-12T11:35:15;100254.28;;;3.73;100.00
9717;BME280;4897;43.570;27.832;2023-02-12T11:37:50;100262.06;;;3.76;100.00
9717;BME280;4897;43.570;27.832;2023-02-12T11:40:21;100254.31;;;3.72;100.00
9717;BME280;4897;43.570;27.832;2023-02-12T11:42:54;100266.22;;;3.83;100.00
9717;BME280;4897;43.570;27.832;2023-02-12T11:45:29;100260.56;;;3.69;100.00
9717;BME280;4897;43.570;27.832;2023-02-12T11:47:58;100262.56;;;3.64;100.00
9717;BME280;4897;43.570;27.832;2023-02-12T11:50:27;100265.28;;;3.63;100.00
9717;BME280;4897;43.570;27.832;2023-02-12T11:52:57;100253.69;;;3.65;100.00
9717;BME280;4897;43.570;27.832;2023-02-12T11:55:28;100260.94;;;3.82;100.00
9717;BME280;4897;43.570;27.832;2023-02-12T11:58:03;100282.22;;;3.57;100.00
9717;BME280;4897;43.570;27.832;2023-02-12T12:00:33;100235.25;;;3.64;100.00
9717;BME280;4897;43.570;27.832;2023-02-12T12:03:09;100256.16;;;3.91;100.00
9717;BME280;4897;43.570;27.832;2023-02-12T12:05:43;100268.34;;;4.17;100.00
9717;BME280;4897;43.570;27.832;2023-02-12T12:08:16;100232.28;;;3.93;100.00
9717;BME280;4897;43.570;27.832;2023-02-12T12:10:48;100268.47;;;4.14;100.00
9717;BME280;4897;43.570;27.832;2023-02-12T12:13:22;100251.59;;;4.17;100.00
9717;BME280;4897;43.570;27.832;2023-02-12T12:15:57;100263.97;;;4.16;100.00
9717;BME280;4897;43.570;27.832;2023-02-12T12:18:45;100256.28;;;4.10;100.00
9717;BME280;4897;43.570;27.832;2023-02-12T12:21:35;100270.81;;;4.00;100.00
9717;BME280;4897;43.570;27.832;2023-02-12T12:24:09;100267.78;;;4.09;100.00
9717;BME280;4897;43.570;27.832;2023-02-12T12:26:41;100265.28;;;4.06;100.00
9717;BME280;4897;43.570;27.832;2023-02-12T12:29:15;100268.66;;;3.88;100.00
9717;BME280;4897;43.570;27.832;2023-02-12T12:31:46;100270.56;;;3.84;100.00
9717;BME280;4897;43.570;27.832;2023-02-12T12:34:15;100275.75;;;3.87;100.00
9717;BME280;4897;43.570;27.832;2023-02-12T12:37:01;100262.94;;;3.77;100.00
9717;BME280;4897;43.570;27.832;2023-02-12T12:39:35;100200.97;;;3.39;100.00
9717;BME280;4897;43.570;27.832;2023-02-12T12:42:42;100274.81;;;3.88;100.00
9717;BME280;4897;43.570;27.832;2023-02-12T12:45:28;100267.72;;;3.89;100.00
9717;BME280;4897;43.570;27.832;2023-02-12T12:48:07;100277.81;;;4.01;100.00
9717;BME280;4897;43.570;27.832;2023-02-12T12:51:02;100289.53;;;3.95;100.00
9717;BME280;4897;43.570;27.832;2023-02-12T12:53:44;100290.06;;;4.03;100.00
9717;BME280;4897;43.570;27.832;2023-02-12T12:56:32;100271.31;;;3.88;100.00
9717;BME280;4897;43.570;27.832;2023-02-12T12:59:28;100288.59;;;3.96;100.00
9717;BME280;4897;43.570;27.832;2023-02-12T13:05:18;100290.38;;;4.18;100.00
9717;BME280;4897;43.570;27.832;2023-02-12T13:07:54;100305.34;;;4.19;100.00
9717;BME280;4897;43.570;27.832;2023-02-12T13:10:32;100286.56;;;4.03;100.00
9717;BME280;4897;43.570;27.832;2023-02-12T13:13:21;100311.13;;;4.07;100.00
9717;BME280;4897;43.570;27.832;2023-02-12T13:15:56;100333.97;;;3.86;100.00
9717;BME280;4897;43.570;27.832;2023-02-12T13:18:36;100332.22;;;3.63;100.00
9717;BME280;4897;43.570;27.832;2023-02-12T13:21:13;100343.22;;;3.53;100.00
9717;BME280;4897;43.570;27.832;2023-02-12T13:23:48;100342.38;;;3.52;100.00
9717;BME280;4897;43.570;27.832;2023-02-12T13:26:21;100349.94;;;3.38;100.00